Time,TemperatureF,DewpointF,PressureIn,WindDirection,WindDirectionDegrees,WindSpeedMPH,WindSpeedGustMPH,Humidity,HourlyPrecipIn,Conditions,Clouds,dailyrainin,SoftwareType,DateUTC
2013-11-02 00:00:00,51.6,50.2,29.85,West,270,0.0,0.0,95,0.00,CLR,,0.00,WeatherDisplay:10.37,2013-11-02 07:00:00,
2013-11-02 00:05:00,51.6,50.2,29.85,West,270,0.0,0.0,95,0.00,CLR,,0.00,WeatherDisplay:10.37,2013-11-02 07:05:00,
2013-11-02 00:10:00,51.6,50.2,29.85,West,270,0.0,0.0,95,0.00,CLR,,0.00,WeatherDisplay:10.37,2013-11-02 07:10:00,
2013-11-02 00:20:00,51.4,50.0,29.85,West,270,0.0,0.0,95,0.00,CLR,,0.00,WeatherDisplay:10.37,2013-11-02 07:20:00,
2013-11-02 00:30:00,51.4,50.0,29.84,West,270,0.0,0.0,95,0.01,,,0.01,WeatherDisplay:10.37,2013-11-02 07:30:00,
2013-11-02 00:40:00,51.3,50.2,29.84,WNW,289,0.0,0.0,96,0.00,,,0.01,WeatherDisplay:10.37,2013-11-02 07:40:00,
2013-11-02 00:50:00,51.2,50.1,29.84,NE,51,0.0,0.0,96,0.00,,,0.02,WeatherDisplay:10.37,2013-11-02 07:50:00,
2013-11-02 01:00:00,51.1,50.3,29.83,NE,51,0.0,0.0,97,0.01,,,0.03,WeatherDisplay:10.37,2013-11-02 08:00:00,
2013-11-02 01:05:00,51.2,50.4,29.83,ENE,70,0.0,1.0,97,0.01,,,0.04,WeatherDisplay:10.37,2013-11-02 08:05:00,
2013-11-02 01:10:00,51.5,51.0,29.83,SE,135,0.0,2.0,98,0.01,RA,,0.05,WeatherDisplay:10.37,2013-11-02 08:10:00,
2013-11-02 01:20:00,52.1,51.6,29.82,South,170,1.0,3.0,98,0.01,RA,,0.07,WeatherDisplay:10.37,2013-11-02 08:20:00,
2013-11-02 01:30:00,52.3,51.8,29.81,SSE,159,1.0,1.0,98,0.02,RA,,0.10,WeatherDisplay:10.37,2013-11-02 08:30:00,
2013-11-02 01:40:00,52.3,51.8,29.80,SSE,160,0.0,0.0,98,0.01,RA,,0.13,WeatherDisplay:10.37,2013-11-02 08:40:00,
2013-11-02 01:50:00,52.2,51.7,29.78,SSE,167,0.0,1.0,98,0.02,RA,,0.16,WeatherDisplay:10.37,2013-11-02 08:50:00,
2013-11-02 02:00:00,52.1,51.6,29.76,South,178,0.0,2.0,98,0.01,RA,,0.19,WeatherDisplay:10.37,2013-11-02 09:00:00,
2013-11-02 02:05:00,52.0,51.5,29.76,South,180,0.0,0.0,98,0.00,RA,,0.19,WeatherDisplay:10.37,2013-11-02 09:05:00,
2013-11-02 02:10:00,52.0,51.5,29.76,SSW,207,0.0,0.0,98,0.01,RA,,0.20,WeatherDisplay:10.37,2013-11-02 09:10:00,
2013-11-02 02:20:00,51.9,51.3,29.76,WSW,249,0.0,0.0,98,0.00,RA,,0.20,WeatherDisplay:10.37,2013-11-02 09:20:00,
2013-11-02 02:30:00,51.8,51.3,29.75,WSW,239,0.0,0.0,98,0.00,RA,,0.20,WeatherDisplay:10.37,2013-11-02 09:30:00,
2013-11-02 02:40:00,51.7,51.2,29.75,SSW,200,0.0,0.0,98,0.01,RA,,0.21,WeatherDisplay:10.37,2013-11-02 09:40:00,
2013-11-02 02:50:00,51.7,51.1,29.74,SSW,200,0.0,0.0,98,0.00,RA,,0.22,WeatherDisplay:10.37,2013-11-02 09:50:00,
2013-11-02 03:00:00,51.6,51.1,29.74,SSW,200,0.0,0.0,98,0.01,RA,,0.24,WeatherDisplay:10.37,2013-11-02 10:00:00,
2013-11-02 03:05:00,51.5,51.0,29.73,SSW,200,0.0,0.0,98,0.00,RA,,0.24,WeatherDisplay:10.37,2013-11-02 10:05:00,
2013-11-02 03:10:00,51.5,51.0,29.71,South,188,0.0,0.0,98,0.01,RA,,0.25,WeatherDisplay:10.37,2013-11-02 10:10:00,
2013-11-02 03:20:00,51.3,50.7,29.68,NE,49,0.0,0.0,98,0.00,RA,,0.27,WeatherDisplay:10.37,2013-11-02 10:20:00,
2013-11-02 03:30:00,51.2,50.7,29.68,West,272,0.0,0.0,98,0.01,RA,,0.28,WeatherDisplay:10.37,2013-11-02 10:30:00,
2013-11-02 03:40:00,51.2,50.7,29.69,WSW,256,0.0,2.0,98,0.00,RA,,0.29,WeatherDisplay:10.37,2013-11-02 10:40:00,
2013-11-02 03:50:00,51.0,50.5,29.68,SE,126,1.0,2.0,98,0.01,RA,,0.31,WeatherDisplay:10.37,2013-11-02 10:50:00,
2013-11-02 04:00:00,51.0,50.5,29.68,SE,136,0.0,0.0,98,0.01,RA,,0.32,WeatherDisplay:10.37,2013-11-02 11:00:00,
2013-11-02 04:05:00,50.9,50.4,29.67,SSE,154,0.0,0.0,98,0.00,RA,,0.32,WeatherDisplay:10.37,2013-11-02 11:05:00,
2013-11-02 04:10:00,51.0,50.4,29.68,SSE,155,0.0,0.0,98,0.01,RA,,0.33,WeatherDisplay:10.37,2013-11-02 11:10:00,
2013-11-02 04:20:00,50.8,50.3,29.68,SSE,155,1.0,2.0,98,0.02,RA,,0.37,WeatherDisplay:10.37,2013-11-02 11:20:00,
2013-11-02 04:30:00,50.7,50.2,29.67,South,180,0.0,3.0,98,0.00,RA,,0.38,WeatherDisplay:10.37,2013-11-02 11:30:00,
2013-11-02 04:40:00,50.6,50.1,29.66,South,177,1.0,4.0,98,0.00,RA,,0.39,WeatherDisplay:10.37,2013-11-02 11:40:00,
2013-11-02 04:50:00,50.7,50.2,29.66,SSE,162,0.0,3.0,98,0.00,RA,,0.40,WeatherDisplay:10.37,2013-11-02 11:50:00,
2013-11-02 05:00:00,50.8,50.3,29.66,South,170,0.0,0.0,98,0.00,RA,,0.40,WeatherDisplay:10.37,2013-11-02 12:00:00,
2013-11-02 05:05:00,50.8,50.3,29.66,SSE,162,0.0,0.0,98,0.00,RA,,0.40,WeatherDisplay:10.37,2013-11-02 12:05:00,
2013-11-02 05:10:00,50.9,50.4,29.65,SSE,151,0.0,0.0,98,0.01,RA,,0.41,WeatherDisplay:10.37,2013-11-02 12:10:00,
2013-11-02 05:20:00,51.0,50.5,29.64,SE,138,0.0,0.0,98,0.00,RA,,0.42,WeatherDisplay:10.37,2013-11-02 12:20:00,
2013-11-02 05:30:00,51.2,50.7,29.61,SSE,168,1.0,3.0,98,0.00,RA,,0.43,WeatherDisplay:10.37,2013-11-02 12:30:00,
2013-11-02 05:40:00,51.5,51.0,29.60,SSW,208,1.0,5.0,98,0.01,RA,,0.44,WeatherDisplay:10.37,2013-11-02 12:40:00,
2013-11-02 05:50:00,51.8,51.3,29.59,SW,219,0.0,2.0,98,0.00,RA,,0.44,WeatherDisplay:10.37,2013-11-02 12:50:00,
2013-11-02 06:00:00,52.4,51.6,29.57,West,264,2.0,7.0,97,0.01,RA,,0.45,WeatherDisplay:10.37,2013-11-02 13:00:00,
2013-11-02 06:05:00,52.6,51.8,29.57,SSE,158,1.0,9.0,97,0.00,RA,,0.45,WeatherDisplay:10.37,2013-11-02 13:05:00,
2013-11-02 06:10:00,52.8,51.7,29.55,South,189,2.0,6.0,96,0.00,RA,,0.45,WeatherDisplay:10.37,2013-11-02 13:10:00,
2013-11-02 06:20:00,53.0,51.6,29.56,SW,229,2.0,5.0,95,0.00,RA,,0.45,WeatherDisplay:10.37,2013-11-02 13:20:00,
2013-11-02 06:30:00,53.3,51.4,29.56,SW,234,1.0,3.0,93,0.00,RA,,0.45,WeatherDisplay:10.37,2013-11-02 13:30:00,
2013-11-02 06:40:00,53.6,51.3,29.56,South,171,2.0,5.0,92,0.00,RA,,0.45,WeatherDisplay:10.37,2013-11-02 13:40:00,
2013-11-02 06:50:00,53.7,51.1,29.55,SSE,166,2.0,6.0,91,0.00,RA,,0.45,WeatherDisplay:10.37,2013-11-02 13:50:00,
2013-11-02 07:00:00,53.5,50.6,29.54,NE,55,3.0,8.0,90,0.00,RA,,0.45,WeatherDisplay:10.37,2013-11-02 14:00:00,
2013-11-02 07:05:00,53.8,50.6,29.54,NNE,16,1.0,5.0,89,0.00,RA,,0.45,WeatherDisplay:10.37,2013-11-02 14:05:00,
2013-11-02 07:10:00,53.9,50.7,29.53,ENE,63,1.0,4.0,89,0.00,RA,,0.45,WeatherDisplay:10.37,2013-11-02 14:10:00,
2013-11-02 07:20:00,54.2,50.8,29.53,SE,131,0.0,8.0,88,0.00,RA,,0.45,WeatherDisplay:10.37,2013-11-02 14:20:00,
2013-11-02 07:30:00,54.4,50.3,29.53,East,87,2.0,4.0,86,0.00,RA,,0.45,WeatherDisplay:10.37,2013-11-02 14:30:00,
2013-11-02 07:40:00,54.6,50.5,29.52,ENE,58,3.0,12.0,86,0.00,RA,,0.45,WeatherDisplay:10.37,2013-11-02 14:40:00,
2013-11-02 07:50:00,54.4,50.3,29.52,ENE,63,5.0,12.0,86,0.00,RA,,0.45,WeatherDisplay:10.37,2013-11-02 14:50:00,
2013-11-02 08:00:00,54.2,50.1,29.52,ENE,74,7.0,14.0,86,0.00,RA,,0.45,WeatherDisplay:10.37,2013-11-02 15:00:00,
2013-11-02 08:05:00,54.1,50.0,29.52,East,94,5.0,10.0,86,0.00,RA,,0.45,WeatherDisplay:10.37,2013-11-02 15:05:00,
2013-11-02 08:10:00,54.4,50.3,29.52,East,101,8.0,17.0,86,0.01,RA,,0.46,WeatherDisplay:10.37,2013-11-02 15:10:00,
2013-11-02 08:20:00,53.5,50.3,29.52,East,97,5.0,13.0,89,0.00,RA,,0.46,WeatherDisplay:10.37,2013-11-02 15:20:00,
2013-11-02 08:30:00,53.5,50.3,29.53,NE,40,5.0,14.0,89,0.00,RA,,0.46,WeatherDisplay:10.37,2013-11-02 15:30:00,
2013-11-02 08:40:00,53.2,50.0,29.54,ENE,70,5.0,21.0,89,0.00,RA,,0.46,WeatherDisplay:10.37,2013-11-02 15:40:00,
2013-11-02 08:50:00,53.0,49.5,29.55,East,91,3.0,11.0,88,0.00,RA,,0.46,WeatherDisplay:10.37,2013-11-02 15:50:00,
2013-11-02 09:00:00,52.6,48.5,29.55,NE,40,6.0,12.0,86,0.00,RA,,0.46,WeatherDisplay:10.37,2013-11-02 16:00:00,
2013-11-02 09:05:00,52.4,48.0,29.56,NW,325,2.0,8.0,85,0.00,RA,,0.46,WeatherDisplay:10.37,2013-11-02 16:05:00,
2013-11-02 09:10:00,52.2,47.5,29.57,ESE,107,7.0,20.0,84,0.00,RA,,0.46,WeatherDisplay:10.37,2013-11-02 16:10:00,
2013-11-02 09:20:00,51.8,47.4,29.56,NE,49,5.0,14.0,85,0.00,RA,,0.46,WeatherDisplay:10.37,2013-11-02 16:20:00,
2013-11-02 09:30:00,51.4,48.0,29.56,ENE,73,8.0,25.0,88,0.00,RA,,0.46,WeatherDisplay:10.37,2013-11-02 16:30:00,
2013-11-02 09:40:00,51.2,47.5,29.57,ENE,76,3.0,12.0,87,0.00,RA,,0.46,WeatherDisplay:10.37,2013-11-02 16:40:00,
2013-11-02 09:50:00,51.0,47.0,29.57,ENE,59,1.0,9.0,86,0.00,RA,,0.46,WeatherDisplay:10.37,2013-11-02 16:50:00,
2013-11-02 10:00:00,51.0,46.6,29.57,ESE,109,6.0,13.0,85,0.00,RA,,0.46,WeatherDisplay:10.37,2013-11-02 17:00:00,
2013-11-02 10:05:00,50.9,46.6,29.58,East,91,3.0,9.0,85,0.00,RA,,0.46,WeatherDisplay:10.37,2013-11-02 17:05:00,
2013-11-02 10:10:00,50.8,46.8,29.58,ENE,60,1.0,9.0,86,0.00,RA,,0.46,WeatherDisplay:10.37,2013-11-02 17:10:00,
2013-11-02 10:20:00,50.8,46.1,29.58,SE,136,6.0,18.0,84,0.00,RA,,0.46,WeatherDisplay:10.37,2013-11-02 17:20:00,
2013-11-02 10:30:00,50.8,46.2,29.59,East,80,3.0,20.0,84,0.00,RA,,0.46,WeatherDisplay:10.37,2013-11-02 17:30:00,
2013-11-02 10:40:00,50.9,45.6,29.59,NNE,31,5.0,8.0,82,0.00,RA,,0.46,WeatherDisplay:10.37,2013-11-02 17:40:00,
2013-11-02 10:50:00,50.7,45.7,29.59,East,80,7.0,17.0,83,0.00,RA,,0.46,WeatherDisplay:10.37,2013-11-02 17:50:00,
2013-11-02 11:00:00,50.4,45.4,29.59,East,92,6.0,12.0,83,0.00,RA,,0.46,WeatherDisplay:10.37,2013-11-02 18:00:00,
2013-11-02 11:05:00,50.4,45.4,29.60,ENE,61,3.0,14.0,83,0.00,RA,,0.46,WeatherDisplay:10.37,2013-11-02 18:05:00,
2013-11-02 11:10:00,50.3,45.3,29.60,ESE,106,6.0,10.0,83,0.00,RA,,0.46,WeatherDisplay:10.37,2013-11-02 18:10:00,
2013-11-02 11:20:00,50.1,45.4,29.60,ENE,62,3.0,20.0,84,0.00,RA,,0.46,WeatherDisplay:10.37,2013-11-02 18:20:00,
2013-11-02 11:30:00,50.0,45.4,29.60,ESE,116,6.0,10.0,84,0.00,RA,,0.46,WeatherDisplay:10.37,2013-11-02 18:30:00,
2013-11-02 11:40:00,49.9,45.3,29.60,East,83,3.0,13.0,84,0.00,RA,,0.46,WeatherDisplay:10.37,2013-11-02 18:40:00,
2013-11-02 11:50:00,49.9,45.3,29.60,East,96,5.0,12.0,84,0.00,RA,,0.47,WeatherDisplay:10.37,2013-11-02 18:50:00,
2013-11-02 12:00:00,50.0,45.0,29.61,East,101,8.0,17.0,83,0.00,RA,,0.47,WeatherDisplay:10.37,2013-11-02 19:00:00,
2013-11-02 12:05:00,50.0,44.7,29.62,ESE,103,5.0,15.0,82,0.00,RA,,0.47,WeatherDisplay:10.37,2013-11-02 19:05:00,
2013-11-02 12:10:00,50.0,44.7,29.61,East,101,5.0,13.0,82,0.00,RA,,0.47,WeatherDisplay:10.37,2013-11-02 19:10:00,
2013-11-02 12:20:00,50.0,44.7,29.62,SE,130,2.0,13.0,82,0.00,RA,,0.47,WeatherDisplay:10.37,2013-11-02 19:20:00,
2013-11-02 12:30:00,50.0,45.0,29.62,SSW,196,2.0,10.0,83,0.00,RA,,0.47,WeatherDisplay:10.37,2013-11-02 19:30:00,
2013-11-02 12:40:00,50.1,44.8,29.63,SE,136,3.0,15.0,82,0.00,RA,,0.47,WeatherDisplay:10.37,2013-11-02 19:40:00,
2013-11-02 12:50:00,49.9,44.9,29.64,SSE,162,1.0,10.0,83,0.00,RA,,0.47,WeatherDisplay:10.37,2013-11-02 19:50:00,
2013-11-02 13:00:00,49.9,44.3,29.65,West,281,9.0,23.0,81,0.00,RA,,0.47,WeatherDisplay:10.37,2013-11-02 20:00:00,
2013-11-02 13:05:00,50.0,44.7,29.65,SSW,208,3.0,10.0,82,0.00,RA,,0.47,WeatherDisplay:10.37,2013-11-02 20:05:00,
2013-11-02 13:10:00,50.1,44.5,29.66,East,92,2.0,10.0,81,0.00,RA,,0.47,WeatherDisplay:10.37,2013-11-02 20:10:00,
2013-11-02 13:20:00,50.2,44.6,29.66,ESE,106,2.0,8.0,81,0.00,RA,,0.47,WeatherDisplay:10.37,2013-11-02 20:20:00,
2013-11-02 13:30:00,50.3,44.7,29.66,ENE,59,0.0,15.0,81,0.00,RA,,0.47,WeatherDisplay:10.37,2013-11-02 20:30:00,
2013-11-02 13:35:00,50.3,45.0,29.68,NNW,329,2.0,4.0,82,0.00,RA,,0.47,WeatherDisplay:10.37,2013-11-02 20:35:00,
2013-11-02 13:45:00,50.5,44.2,29.69,East,92,2.0,12.0,79,0.00,RA,,0.47,WeatherDisplay:10.37,2013-11-02 20:45:00,
2013-11-02 13:50:00,50.6,43.7,29.68,ESE,112,3.0,8.0,77,0.00,RA,,0.47,WeatherDisplay:10.37,2013-11-02 20:50:00,
2013-11-02 14:00:00,50.9,44.0,29.69,NNE,28,2.0,13.0,77,0.00,RA,,0.47,WeatherDisplay:10.37,2013-11-02 21:00:00,
2013-11-02 14:05:00,51.0,43.7,29.69,ENE,60,2.0,12.0,76,0.00,RA,,0.47,WeatherDisplay:10.37,2013-11-02 21:05:00,
2013-11-02 14:10:00,51.0,44.4,29.70,ENE,59,0.0,3.0,78,0.00,RA,,0.47,WeatherDisplay:10.37,2013-11-02 21:10:00,
2013-11-02 14:20:00,51.0,43.7,29.72,North,354,3.0,10.0,76,0.00,RA,,0.47,WeatherDisplay:10.37,2013-11-02 21:20:00,
2013-11-02 14:30:00,51.2,43.2,29.72,SSE,159,2.0,9.0,74,0.00,RA,,0.47,WeatherDisplay:10.37,2013-11-02 21:30:00,
2013-11-02 14:40:00,51.3,43.6,29.73,SE,125,2.0,5.0,75,0.00,RA,,0.47,WeatherDisplay:10.37,2013-11-02 21:40:00,
2013-11-02 14:50:00,51.4,43.4,29.73,SSE,161,0.0,5.0,74,0.00,RA,,0.47,WeatherDisplay:10.37,2013-11-02 21:50:00,
2013-11-02 15:00:00,51.5,43.8,29.75,SE,142,2.0,7.0,75,0.00,RA,,0.47,WeatherDisplay:10.37,2013-11-02 22:00:00,
2013-11-02 15:05:00,51.5,43.9,29.75,South,178,1.0,4.0,75,0.00,RA,,0.47,WeatherDisplay:10.37,2013-11-02 22:05:00,
2013-11-02 15:10:00,51.6,43.9,29.76,SE,143,1.0,8.0,75,0.00,RA,,0.47,WeatherDisplay:10.37,2013-11-02 22:10:00,
2013-11-02 15:20:00,51.6,43.6,29.76,South,180,2.0,7.0,74,0.00,RA,,0.47,WeatherDisplay:10.37,2013-11-02 22:20:00,
2013-11-02 15:30:00,51.7,43.7,29.76,SW,226,2.0,14.0,74,0.00,RA,,0.47,WeatherDisplay:10.37,2013-11-02 22:30:00,
2013-11-02 15:40:00,51.9,43.2,29.77,WSW,243,2.0,7.0,72,0.00,RA,,0.47,WeatherDisplay:10.37,2013-11-02 22:40:00,
2013-11-02 15:50:00,52.0,43.3,29.77,SSE,161,5.0,10.0,72,0.00,RA,,0.47,WeatherDisplay:10.37,2013-11-02 22:50:00,
2013-11-02 16:00:00,52.1,43.3,29.77,SSE,148,0.0,6.0,72,0.00,RA,,0.47,WeatherDisplay:10.37,2013-11-02 23:00:00,
2013-11-02 16:05:00,52.1,42.6,29.77,ESE,108,6.0,12.0,70,0.00,RA,,0.47,WeatherDisplay:10.37,2013-11-02 23:05:00,
2013-11-02 16:10:00,52.0,42.5,29.78,ESE,114,3.0,8.0,70,0.00,RA,,0.47,WeatherDisplay:10.37,2013-11-02 23:10:00,
2013-11-02 16:20:00,51.8,42.7,29.78,SE,143,6.0,10.0,71,0.00,RA,,0.47,WeatherDisplay:10.37,2013-11-02 23:20:00,
2013-11-02 16:25:00,51.6,42.5,29.79,SSE,151,3.0,12.0,71,0.00,RA,,0.47,WeatherDisplay:10.37,2013-11-02 23:25:00,
2013-11-02 16:35:00,51.3,43.3,29.79,SE,126,1.0,3.0,74,0.00,RA,,0.47,WeatherDisplay:10.37,2013-11-02 23:35:00,
2013-11-02 16:40:00,51.0,43.0,29.78,South,171,0.0,9.0,74,0.00,RA,,0.47,WeatherDisplay:10.37,2013-11-02 23:40:00,
2013-11-02 16:50:00,50.7,42.7,29.79,South,171,2.0,5.0,74,0.00,RA,,0.47,WeatherDisplay:10.37,2013-11-02 23:50:00,
2013-11-02 17:00:00,50.5,42.2,29.78,SSE,153,2.0,9.0,73,0.00,RA,,0.47,WeatherDisplay:10.37,2013-11-03 00:00:00,
2013-11-02 17:10:00,50.2,41.9,29.79,SSE,157,3.0,10.0,73,0.00,RA,,0.47,WeatherDisplay:10.37,2013-11-03 00:10:00,
2013-11-02 17:20:00,50.1,41.8,29.78,SE,134,2.0,10.0,73,0.00,RA,,0.47,WeatherDisplay:10.37,2013-11-03 00:20:00,
2013-11-02 17:30:00,50.0,41.4,29.79,East,87,2.0,11.0,72,0.00,RA,,0.47,WeatherDisplay:10.37,2013-11-03 00:30:00,
2013-11-02 17:40:00,49.7,41.4,29.79,SE,126,5.0,12.0,73,0.00,RA,,0.47,WeatherDisplay:10.37,2013-11-03 00:40:00,
2013-11-02 17:50:00,49.9,41.6,29.80,SE,146,3.0,9.0,73,0.00,RA,,0.47,WeatherDisplay:10.37,2013-11-03 00:50:00,
2013-11-02 18:00:00,49.7,41.0,29.80,ESE,115,2.0,12.0,72,0.00,RA,,0.47,WeatherDisplay:10.37,2013-11-03 01:00:00,
2013-11-02 18:10:00,49.3,41.4,29.81,South,184,3.0,9.0,74,0.00,RA,,0.47,WeatherDisplay:10.37,2013-11-03 01:10:00,
2013-11-02 18:20:00,49.2,40.9,29.81,ESE,109,1.0,7.0,73,0.00,RA,,0.47,WeatherDisplay:10.37,2013-11-03 01:20:00,
2013-11-02 18:30:00,48.9,41.0,29.82,SE,134,1.0,3.0,74,0.00,RA,,0.47,WeatherDisplay:10.37,2013-11-03 01:30:00,
2013-11-02 18:40:00,48.8,40.9,29.82,SSE,153,1.0,4.0,74,0.00,RA,,0.47,WeatherDisplay:10.37,2013-11-03 01:40:00,
2013-11-02 18:50:00,48.4,40.8,29.82,South,171,2.0,3.0,75,0.00,RA,,0.47,WeatherDisplay:10.37,2013-11-03 01:50:00,
2013-11-02 19:00:00,48.5,40.6,29.83,SSE,164,1.0,3.0,74,0.00,RA,,0.47,WeatherDisplay:10.37,2013-11-03 02:00:00,
2013-11-02 19:05:00,48.6,40.7,29.83,SE,131,1.0,3.0,74,0.00,RA,,0.47,WeatherDisplay:10.37,2013-11-03 02:05:00,
2013-11-02 19:10:00,48.6,40.7,29.84,SSE,165,1.0,4.0,74,0.00,RA,,0.47,WeatherDisplay:10.37,2013-11-03 02:10:00,
2013-11-02 19:20:00,48.6,41.0,29.84,SSE,151,1.0,4.0,75,0.00,RA,,0.47,WeatherDisplay:10.37,2013-11-03 02:20:00,
2013-11-02 19:30:00,48.6,41.0,29.84,SSW,198,1.0,3.0,75,0.00,RA,,0.47,WeatherDisplay:10.37,2013-11-03 02:30:00,
2013-11-02 19:40:00,48.5,40.9,29.85,WSW,244,1.0,3.0,75,0.00,RA,,0.47,WeatherDisplay:10.37,2013-11-03 02:40:00,
2013-11-02 19:50:00,48.3,41.4,29.85,South,178,0.0,1.0,77,0.00,RA,,0.47,WeatherDisplay:10.37,2013-11-03 02:50:00,
2013-11-02 20:00:00,48.3,41.1,29.85,SE,137,0.0,10.0,76,0.00,RA,,0.47,WeatherDisplay:10.37,2013-11-03 03:00:00,
2013-11-02 20:05:00,48.3,41.1,29.85,SE,136,2.0,4.0,76,0.00,RA,,0.47,WeatherDisplay:10.37,2013-11-03 03:05:00,
2013-11-02 20:10:00,48.2,40.6,29.85,SE,124,1.0,4.0,75,0.00,RA,,0.47,WeatherDisplay:10.37,2013-11-03 03:10:00,
2013-11-02 20:20:00,48.1,41.2,29.85,SSE,148,0.0,2.0,77,0.00,RA,,0.47,WeatherDisplay:10.37,2013-11-03 03:20:00,
2013-11-02 20:25:00,48.0,40.8,29.85,SSE,154,2.0,6.0,76,0.00,RA,,0.47,WeatherDisplay:10.37,2013-11-03 03:25:00,
2013-11-02 20:35:00,47.9,40.7,29.85,ESE,114,2.0,5.0,76,0.00,RA,,0.47,WeatherDisplay:10.37,2013-11-03 03:35:00,
2013-11-02 20:40:00,47.9,40.7,29.85,ESE,117,1.0,3.0,76,0.00,RA,,0.47,WeatherDisplay:10.37,2013-11-03 03:40:00,
2013-11-02 20:50:00,47.8,40.6,29.85,SSE,167,0.0,8.0,76,0.00,RA,,0.47,WeatherDisplay:10.37,2013-11-03 03:50:00,
2013-11-02 21:00:00,47.7,40.8,29.86,ENE,73,0.0,2.0,77,0.00,RA,,0.47,WeatherDisplay:10.37,2013-11-03 04:00:00,
2013-11-02 21:05:00,47.6,41.1,29.86,NE,38,1.0,3.0,78,0.00,RA,,0.47,WeatherDisplay:10.37,2013-11-03 04:05:00,
2013-11-02 21:10:00,47.5,41.0,29.86,ENE,71,2.0,5.0,78,0.00,RA,,0.47,WeatherDisplay:10.37,2013-11-03 04:10:00,
2013-11-02 21:15:00,47.5,41.0,29.86,ESE,105,1.0,4.0,78,0.00,RA,,0.47,WeatherDisplay:10.37,2013-11-03 04:15:00,
2013-11-02 21:20:00,47.4,40.9,29.87,ESE,122,0.0,2.0,78,0.00,RA,,0.47,WeatherDisplay:10.37,2013-11-03 04:20:00,
2013-11-02 21:30:00,47.3,41.1,29.87,SE,134,0.0,1.0,79,0.00,RA,,0.47,WeatherDisplay:10.37,2013-11-03 04:30:00,
2013-11-02 21:35:00,47.2,40.7,29.87,SSE,150,0.0,1.0,78,0.00,RA,,0.47,WeatherDisplay:10.37,2013-11-03 04:35:00,
2013-11-02 21:40:00,47.2,40.7,29.88,SSE,147,0.0,1.0,78,0.00,RA,,0.47,WeatherDisplay:10.37,2013-11-03 04:40:00,
2013-11-02 21:50:00,47.0,40.8,29.88,ESE,122,0.0,3.0,79,0.00,RA,,0.47,WeatherDisplay:10.37,2013-11-03 04:50:00,
2013-11-02 22:00:00,46.8,40.6,29.88,ESE,109,0.0,1.0,79,0.00,RA,,0.47,WeatherDisplay:10.37,2013-11-03 05:00:00,
2013-11-02 22:05:00,46.7,40.9,29.88,ESE,117,0.0,1.0,80,0.00,RA,,0.47,WeatherDisplay:10.37,2013-11-03 05:05:00,
2013-11-02 22:10:00,46.5,40.7,29.89,SE,137,0.0,0.0,80,0.00,RA,,0.47,WeatherDisplay:10.37,2013-11-03 05:10:00,
2013-11-02 22:20:00,45.9,41.6,29.89,South,177,0.0,1.0,85,0.00,RA,,0.47,WeatherDisplay:10.37,2013-11-03 05:20:00,
2013-11-02 22:30:00,45.3,41.7,29.89,South,170,0.0,1.0,87,0.00,RA,,0.47,WeatherDisplay:10.37,2013-11-03 05:30:00,
2013-11-02 22:40:00,44.9,41.9,29.89,SSE,160,0.0,3.0,89,0.00,RA,,0.47,WeatherDisplay:10.37,2013-11-03 05:40:00,
2013-11-02 22:50:00,44.6,41.8,29.90,South,174,0.0,0.0,90,0.00,RA,,0.47,WeatherDisplay:10.37,2013-11-03 05:50:00,
2013-11-02 23:00:00,44.4,41.9,29.90,SSE,157,0.0,0.0,91,0.00,RA,,0.47,WeatherDisplay:10.37,2013-11-03 06:00:00,
2013-11-02 23:05:00,44.3,41.8,29.90,SSE,157,0.0,0.0,91,0.01,RA,,0.48,WeatherDisplay:10.37,2013-11-03 06:05:00,
2013-11-02 23:10:00,44.3,42.1,29.90,SSE,155,0.0,0.0,92,0.00,RA,,0.48,WeatherDisplay:10.37,2013-11-03 06:10:00,
2013-11-02 23:20:00,44.2,42.0,29.90,SE,136,0.0,0.0,92,0.00,RA,,0.48,WeatherDisplay:10.37,2013-11-03 06:20:00,
2013-11-02 23:30:00,44.1,41.6,29.88,SE,132,0.0,0.0,91,0.00,RA,,0.48,WeatherDisplay:10.37,2013-11-03 06:30:00,
2013-11-02 23:40:00,44.2,41.7,29.89,SSE,148,1.0,4.0,91,0.00,RA,,0.48,WeatherDisplay:10.37,2013-11-03 06:40:00,
2013-11-02 23:50:00,44.3,41.3,29.89,SSW,212,2.0,6.0,89,0.00,RA,,0.48,WeatherDisplay:10.37,2013-11-03 06:50:00,